sensor_id;sensor_type;location;lat;lon;timestamp;pressure;altitude;pressure_sealevel;temperature;humidity
44457;BME280;30159;49.316;8.558;2023-05-21T00:01:22;100049.28;;;16.92;100.00
44457;BME280;30159;49.316;8.558;2023-05-21T00:03:49;100036.88;;;16.82;100.00
44457;BME280;30159;49.316;8.558;2023-05-21T00:06:16;100057.66;;;16.87;100.00
44457;BME280;30159;49.316;8.558;2023-05-21T00:08:45;100051.44;;;16.87;100.00
44457;BME280;30159;49.316;8.558;2023-05-21T00:11:13;100051.31;;;16.83;100.00
44457;BME280;30159;49.316;8.558;2023-05-21T00:13:39;100053.56;;;16.81;100.00
44457;BME280;30159;49.316;8.558;2023-05-21T00:16:06;100007.06;;;16.48;100.00
44457;BME280;30159;49.316;8.558;2023-05-21T00:18:35;100053.56;;;16.81;100.00
44457;BME280;30159;49.316;8.558;2023-05-21T00:21:03;100054.81;;;16.83;100.00
44457;BME280;30159;49.316;8.558;2023-05-21T00:23:30;100043.91;;;16.83;100.00
44457;BME280;30159;49.316;8.558;2023-05-21T00:25:57;100042.47;;;16.86;100.00
44457;BME280;30159;49.316;8.558;2023-05-21T00:28:25;100036.66;;;16.88;100.00
44457;BME280;30159;49.316;8.558;2023-05-21T00:30:52;100030.69;;;16.94;100.00
44457;BME280;30159;49.316;8.558;2023-05-21T00:33:18;100028.59;;;17.00;100.00
44457;BME280;30159;49.316;8.558;2023-05-21T00:35:46;100025.41;;;16.98;100.00
44457;BME280;30159;49.316;8.558;2023-05-21T00:38:12;100023.00;;;16.96;100.00
44457;BME280;30159;49.316;8.558;2023-05-21T00:40:39;100031.53;;;16.95;100.00
44457;BME280;30159;49.316;8.558;2023-05-21T00:43:06;99909.94;;;16.10;100.00
44457;BME280;30159;49.316;8.558;2023-05-21T00:45:36;100029.94;;;16.85;100.00
44457;BME280;30159;49.316;8.558;2023-05-21T00:48:03;99976.13;;;16.52;100.00
44457;BME280;30159;49.316;8.558;2023-05-21T00:50:30;100021.47;;;16.78;100.00
44457;BME280;30159;49.316;8.558;2023-05-21T00:52:57;100022.31;;;16.78;100.00
44457;BME280;30159;49.316;8.558;2023-05-21T00:55:24;100015.25;;;16.77;100.00
44457;BME280;30159;49.316;8.558;2023-05-21T00:57:50;100020.09;;;16.72;100.00
44457;BME280;30159;49.316;8.558;2023-05-21T01:00:17;100014.19;;;16.70;100.00
44457;BME280;30159;49.316;8.558;2023-05-21T01:02:46;100013.03;;;16.71;100.00
44457;BME280;30159;49.316;8.558;2023-05-21T01:05:12;100010.31;;;16.71;100.00
44457;BME280;30159;49.316;8.558;2023-05-21T01:07:39;100011.94;;;16.72;100.00
44457;BME280;30159;49.316;8.558;2023-05-21T01:10:10;100013.03;;;16.71;100.00
44457;BME280;30159;49.316;8.558;2023-05-21T01:12:38;100012.56;;;16.69;100.00
44457;BME280;30159;49.316;8.558;2023-05-21T01:15:07;99944.63;;;16.21;100.00
44457;BME280;30159;49.316;8.558;2023-05-21T01:17:35;100010.03;;;16.63;100.00
44457;BME280;30159;49.316;8.558;2023-05-21T01:20:04;100000.13;;;16.59;100.00
44457;BME280;30159;49.316;8.558;2023-05-21T01:22:35;99992.63;;;16.56;100.00
44457;BME280;30159;49.316;8.558;2023-05-21T01:25:05;100000.81;;;16.56;100.00
44457;BME280;30159;49.316;8.558;2023-05-21T01:27:32;99992.94;;;16.54;100.00
44457;BME280;30159;49.316;8.558;2023-05-21T01:29:59;99988.38;;;16.46;100.00
44457;BME280;30159;49.316;8.558;2023-05-21T01:32:28;99985.16;;;16.44;100.00
44457;BME280;30159;49.316;8.558;2023-05-21T01:34:59;99989.94;;;16.47;100.00
44457;BME280;30159;49.316;8.558;2023-05-21T01:37:30;99991.72;;;16.43;100.00
44457;BME280;30159;49.316;8.558;2023-05-21T01:40:02;99877.16;;;15.68;100.00
44457;BME280;30159;49.316;8.558;2023-05-21T01:42:34;99987.81;;;16.32;100.00
44457;BME280;30159;49.316;8.558;2023-05-21T01:45:02;99982.00;;;16.33;100.00
44457;BME280;30159;49.316;8.558;2023-05-21T01:47:31;99993.25;;;16.32;100.00
44457;BME280;30159;49.316;8.558;2023-05-21T01:49:59;99927.28;;;15.96;100.00
44457;BME280;30159;49.316;8.558;2023-05-21T01:52:25;99982.38;;;16.32;100.00
44457;BME280;30159;49.316;8.558;2023-05-21T01:54:52;99982.81;;;16.34;100.00
44457;BME280;30159;49.316;8.558;2023-05-21T01:57:19;99972.59;;;16.31;100.00
44457;BME280;30159;49.316;8.558;2023-05-21T01:59:47;99980.75;;;16.31;100.00
44457;BME280;30159;49.316;8.558;2023-05-21T02:02:14;99966.66;;;16.29;100.00
44457;BME280;30159;49.316;8.558;2023-05-21T02:04:40;99969.75;;;16.27;100.00
44457;BME280;30159;49.316;8.558;2023-05-21T02:07:08;99977.44;;;16.25;100.00
44457;BME280;30159;49.316;8.558;2023-05-21T02:09:35;99975.03;;;16.23;100.00
44457;BME280;30159;49.316;8.558;2023-05-21T02:12:02;99968.63;;;16.19;100.00
44457;BME280;30159;49.316;8.558;2023-05-21T02:14:28;99971.81;;;16.21;100.00
44457;BME280;30159;49.316;8.558;2023-05-21T02:16:59;99978.88;;;16.22;100.00
44457;BME280;30159;49.316;8.558;2023-05-21T02:19:26;99974.22;;;16.23;100.00
44457;BME280;30159;49.316;8.558;2023-05-21T02:21:52;99976.47;;;16.21;100.00
44457;BME280;30159;49.316;8.558;2023-05-21T02:24:19;99975.69;;;16.20;100.00
44457;BME280;30159;49.316;8.558;2023-05-21T02:26:46;99974.34;;;16.27;100.00
44457;BME280;30159;49.316;8.558;2023-05-21T02:29:14;99967.47;;;16.29;100.00
44457;BME280;30159;49.316;8.558;2023-05-21T02:31:41;99967.34;;;16.26;100.00
44457;BME280;30159;49.316;8.558;2023-05-21T02:34:09;99968.63;;;16.19;100.00
44457;BME280;30159;49.316;8.558;2023-05-21T02:36:35;99966.41;;;16.13;100.00
44457;BME280;30159;49.316;8.558;2023-05-21T02:39:02;99973.16;;;16.15;100.00
44457;BME280;30159;49.316;8.558;2023-05-21T02:41:29;99907.84;;;15.77;100.00
44457;BME280;30159;49.316;8.558;2023-05-21T02:43:55;99966.75;;;16.11;100.00
44457;BME280;30159;49.316;8.558;2023-05-21T02:46:22;99966.88;;;16.15;100.00
44457;BME280;30159;49.316;8.558;2023-05-21T02:48:48;99966.75;;;16.11;100.00
44457;BME280;30159;49.316;8.558;2023-05-21T02:51:16;99968.53;;;16.07;100.00
44457;BME280;30159;49.316;8.558;2023-05-21T02:53:43;99967.41;;;16.08;100.00
44457;BME280;30159;49.316;8.558;2023-05-21T02:56:09;99950.00;;;16.00;100.00
44457;BME280;30159;49.316;8.558;2023-05-21T02:58:39;99967.28;;;16.05;100.00
44457;BME280;30159;49.316;8.558;2023-05-21T03:01:05;99964.06;;;16.02;100.00
44457;BME280;30159;49.316;8.558;2023-05-21T03:03:32;99959.44;;;16.03;100.00
44457;BME280;30159;49.316;8.558;2023-05-21T03:05:58;99960.56;;;16.02;100.00
44457;BME280;30159;49.316;8.558;2023-05-21T03:08:26;99962.34;;;15.98;100.00
44457;BME280;30159;49.316;8.558;2023-05-21T03:10:53;99958.03;;;15.97;100.00
44457;BME280;30159;49.316;8.558;2023-05-21T03:13:20;99956.75;;;15.94;100.00
44457;BME280;30159;49.316;8.558;2023-05-21T03:15:47;99958.66;;;15.94;100.00
44457;BME280;30159;49.316;8.558;2023-05-21T03:18:14;99954.34;;;15.93;100.00
44457;BME280;30159;49.316;8.558;2023-05-21T03:20:40;99955.47;;;15.92;100.00
44457;BME280;30159;49.316;8.558;2023-05-21T03:23:12;99950.69;;;15.89;100.00
44457;BME280;30159;49.316;8.558;2023-05-21T03:25:41;99954.84;;;15.86;100.00
44457;BME280;30159;49.316;8.558;2023-05-21T03:28:07;99955.03;;;15.90;100.00
44457;BME280;30159;49.316;8.558;2023-05-21T03:30:34;99953.41;;;15.89;100.00
44457;BME280;30159;49.316;8.558;2023-05-21T03:33:02;99952.31;;;15.81;100.00
44457;BME280;30159;49.316;8.558;2023-05-21T03:35:29;99955.53;;;15.83;100.00
44457;BME280;30159;49.316;8.558;2023-05-21T03:37:55;99963.50;;;15.79;100.00
44457;BME280;30159;49.316;8.558;2023-05-21T03:40:22;99964.00;;;15.82;100.00
44457;BME280;30159;49.316;8.558;2023-05-21T03:42:50;99959.34;;;15.82;100.00
44457;BME280;30159;49.316;8.558;2023-05-21T03:45:16;99956.97;;;15.80;100.00
44457;BME280;30159;49.316;8.558;2023-05-21T03:47:43;99955.34;;;15.79;100.00
44457;BME280;30159;49.316;8.558;2023-05-21T03:50:10;99946.88;;;15.81;100.00
44457;BME280;30159;49.316;8.558;2023-05-21T03:52:36;99955.53;;;15.83;100.00
44457;BME280;30159;49.316;8.558;2023-05-21T03:55:03;99950.41;;;15.82;100.00
44457;BME280;30159;49.316;8.558;2023-05-21T03:57:30;99948.75;;;15.89;100.00
44457;BME280;30159;49.316;8.558;2023-05-21T03:59:58;99954.66;;;15.91;100.00
44457;BME280;30159;49.316;8.558;2023-05-21T04:02:24;99947.16;;;15.97;100.00
44457;BME280;30159;49.316;8.558;2023-05-21T04:04:52;99952.88;;;16.04;100.00
44457;BME280;30159;49.316;8.558;2023-05-21T04:07:19;99958.13;;;16.09;100.00
44457;BME280;30159;49.316;8.558;2023-05-21T04:09:46;99953.47;;;16.10;100.00
44457;BME280;30159;49.316;8.558;2023-05-21T04:12:13;99948.19;;;16.13;100.00
44457;BME280;30159;49.316;8.558;2023-05-21T04:14:42;99960.53;;;16.11;100.00
44457;BME280;30159;49.316;8.558;2023-05-21T04:17:10;99953.66;;;16.05;100.00
44457;BME280;30159;49.316;8.558;2023-05-21T04:19:37;99963.69;;;16.13;100.00
44457;BME280;30159;49.316;8.558;2023-05-21T04:22:04;99966.25;;;16.18;100.00
44457;BME280;30159;49.316;8.558;2023-05-21T04:24:30;99974.56;;;16.21;100.00
44457;BME280;30159;49.316;8.558;2023-05-21T04:26:57;99959.91;;;16.05;100.00
44457;BME280;30159;49.316;8.558;2023-05-21T04:29:25;99971.53;;;16.14;100.00
44457;BME280;30159;49.316;8.558;2023-05-21T04:31:52;99973.16;;;16.15;100.00
44457;BME280;30159;49.316;8.558;2023-05-21T04:34:20;99970.47;;;16.07;100.00
44457;BME280;30159;49.316;8.558;2023-05-21T04:36:47;99976.53;;;16.04;100.00
44457;BME280;30159;49.316;8.558;2023-05-21T04:39:14;99922.44;;;15.72;100.00
44457;BME280;30159;49.316;8.558;2023-05-21T04:41:41;99978.94;;;16.05;100.00
44457;BME280;30159;49.316;8.558;2023-05-21T04:44:08;99981.00;;;16.08;100.00
44457;BME280;30159;49.316;8.558;2023-05-21T04:46:38;99986.91;;;16.10;100.00
44457;BME280;30159;49.316;8.558;2023-05-21T04:49:05;99984.03;;;16.15;100.00
44457;BME280;30159;49.316;8.558;2023-05-21T04:51:33;99984.97;;;16.19;100.00
44457;BME280;30159;49.316;8.558;2023-05-21T04:54:02;99985.44;;;16.21;100.00
44457;BME280;30159;49.316;8.558;2023-05-21T04:56:28;99984.16;;;16.19;100.00
44457;BME280;30159;49.316;8.558;2023-05-21T04:58:56;99984.16;;;16.19;100.00
44457;BME280;30159;49.316;8.558;2023-05-21T05:01:24;99984.97;;;16.19;100.00
44457;BME280;30159;49.316;8.558;2023-05-21T05:03:51;99985.25;;;16.27;100.00
44457;BME280;30159;49.316;8.558;2023-05-21T05:06:17;99983.75;;;16.38;100.00
44457;BME280;30159;49.316;8.558;2023-05-21T05:08:45;99987.09;;;16.43;100.00
44457;BME280;30159;49.316;8.558;2023-05-21T05:11:12;99981.03;;;16.38;100.00
44457;BME280;30159;49.316;8.558;2023-05-21T05:13:39;99984.22;;;16.40;100.00
44457;BME280;30159;49.316;8.558;2023-05-21T05:16:06;99982.25;;;16.49;100.00
44457;BME280;30159;49.316;8.558;2023-05-21T05:18:33;99979.25;;;16.42;100.00
44457;BME280;30159;49.316;8.558;2023-05-21T05:21:00;99984.78;;;16.54;100.00
44457;BME280;30159;49.316;8.558;2023-05-21T05:23:27;99973.25;;;16.57;100.00
44457;BME280;30159;49.316;8.558;2023-05-21T05:25:55;99982.25;;;16.79;100.00
44457;BME280;30159;49.316;8.558;2023-05-21T05:28:22;99984.63;;;16.80;100.00
44457;BME280;30159;49.316;8.558;2023-05-21T05:30:48;99981.44;;;16.78;100.00
44457;BME280;30159;49.316;8.558;2023-05-21T05:33:15;99982.56;;;16.77;100.00
44457;BME280;30159;49.316;8.558;2023-05-21T05:35:41;99980.59;;;16.87;100.00
44457;BME280;30159;49.316;8.558;2023-05-21T05:38:08;99980.75;;;16.90;100.00
44457;BME280;30159;49.316;8.558;2023-05-21T05:40:34;99980.06;;;16.93;100.00
44457;BME280;30159;49.316;8.558;2023-05-21T05:43:02;99943.69;;;16.68;100.00
44457;BME280;30159;49.316;8.558;2023-05-21T05:45:29;99987.84;;;17.03;100.00
44457;BME280;30159;49.316;8.558;2023-05-21T05:47:55;99993.63;;;17.23;100.00
44457;BME280;30159;49.316;8.558;2023-05-21T05:50:22;99987.97;;;17.28;100.00
44457;BME280;30159;49.316;8.558;2023-05-21T05:52:48;99984.31;;;17.24;100.00
44457;BME280;30159;49.316;8.558;2023-05-21T05:55:15;99984.19;;;17.20;100.00
44457;BME280;30159;49.316;8.558;2023-05-21T05:57:42;99990.91;;;17.89;100.00
44457;BME280;30159;49.316;8.558;2023-05-21T06:00:11;99990.03;;;18.47;100.00
44457;BME280;30159;49.316;8.558;2023-05-21T06:02:37;99987.50;;;18.91;100.00
44457;BME280;30159;49.316;8.558;2023-05-21T06:05:05;99982.13;;;19.79;96.66
44457;BME280;30159;49.316;8.558;2023-05-21T06:07:32;99952.44;;;20.13;91.79
44457;BME280;30159;49.316;8.558;2023-05-21T06:09:58;99988.16;;;21.42;88.01
44457;BME280;30159;49.316;8.558;2023-05-21T06:12:25;99977.28;;;22.94;76.81
44457;BME280;30159;49.316;8.558;2023-05-21T06:14:51;99987.91;;;23.60;73.06
44457;BME280;30159;49.316;8.558;2023-05-21T06:17:19;99998.91;;;22.66;76.20
44457;BME280;30159;49.316;8.558;2023-05-21T06:19:46;99992.66;;;22.69;75.83
44457;BME280;30159;49.316;8.558;2023-05-21T06:22:12;99994.13;;;22.89;77.17
44457;BME280;30159;49.316;8.558;2023-05-21T06:24:39;99965.34;;;23.47;73.17
44457;BME280;30159;49.316;8.558;2023-05-21T06:27:05;99985.88;;;22.63;74.95
44457;BME280;30159;49.316;8.558;2023-05-21T06:29:32;99952.53;;;22.94;76.38
44457;BME280;30159;49.316;8.558;2023-05-21T06:31:58;99994.84;;;23.84;71.20
44457;BME280;30159;49.316;8.558;2023-05-21T06:34:27;99995.78;;;24.03;71.34
44457;BME280;30159;49.316;8.558;2023-05-21T06:36:53;99984.47;;;24.67;68.87
44457;BME280;30159;49.316;8.558;2023-05-21T06:39:20;99987.31;;;24.26;70.20
44457;BME280;30159;49.316;8.558;2023-05-21T06:41:48;99989.19;;;24.63;68.54
44457;BME280;30159;49.316;8.558;2023-05-21T06:44:15;99996.47;;;24.40;69.58
44457;BME280;30159;49.316;8.558;2023-05-21T06:46:42;99994.41;;;24.82;67.36
44457;BME280;30159;49.316;8.558;2023-05-21T06:49:09;99992.31;;;24.57;68.58
44457;BME280;30159;49.316;8.558;2023-05-21T06:51:39;99988.69;;;25.27;67.13
44457;BME280;30159;49.316;8.558;2023-05-21T06:54:06;99970.00;;;24.91;65.42
44457;BME280;30159;49.316;8.558;2023-05-21T06:56:32;99994.03;;;24.87;67.33
44457;BME280;30159;49.316;8.558;2023-05-21T06:58:59;99959.84;;;23.85;68.97
44457;BME280;30159;49.316;8.558;2023-05-21T07:01:25;99993.81;;;24.03;70.20
44457;BME280;30159;49.316;8.558;2023-05-21T07:03:52;99993.13;;;25.56;66.68
44457;BME280;30159;49.316;8.558;2023-05-21T07:06:19;99948.13;;;25.34;64.05
44457;BME280;30159;49.316;8.558;2023-05-21T07:08:47;100006.09;;;25.34;66.00
44457;BME280;30159;49.316;8.558;2023-05-21T07:11:14;99999.16;;;26.05;65.08
44457;BME280;30159;49.316;8.558;2023-05-21T07:13:41;100001.50;;;26.32;62.90
44457;BME280;30159;49.316;8.558;2023-05-21T07:16:07;100012.16;;;25.94;63.74
44457;BME280;30159;49.316;8.558;2023-05-21T07:18:34;100003.13;;;27.57;61.34
44457;BME280;30159;49.316;8.558;2023-05-21T07:21:01;100007.78;;;29.09;58.08
44457;BME280;30159;49.316;8.558;2023-05-21T07:23:27;99999.97;;;29.28;56.37
44457;BME280;30159;49.316;8.558;2023-05-21T07:25:55;100007.81;;;29.02;56.36
44457;BME280;30159;49.316;8.558;2023-05-21T07:28:22;100002.50;;;29.76;54.39
44457;BME280;30159;49.316;8.558;2023-05-21T07:30:48;100004.69;;;29.00;55.70
44457;BME280;30159;49.316;8.558;2023-05-21T07:33:15;100004.09;;;29.16;56.57
44457;BME280;30159;49.316;8.558;2023-05-21T07:35:43;100006.53;;;29.72;55.00
44457;BME280;30159;49.316;8.558;2023-05-21T07:38:10;100009.66;;;27.88;57.21
44457;BME280;30159;49.316;8.558;2023-05-21T07:40:37;100000.25;;;27.74;57.53
44457;BME280;30159;49.316;8.558;2023-05-21T07:43:04;99990.19;;;29.19;55.33
44457;BME280;30159;49.316;8.558;2023-05-21T07:45:31;99993.28;;;28.53;56.23
44457;BME280;30159;49.316;8.558;2023-05-21T07:47:57;99995.88;;;27.73;57.79
44457;BME280;30159;49.316;8.558;2023-05-21T07:50:24;99978.00;;;27.85;57.60
44457;BME280;30159;49.316;8.558;2023-05-21T07:52:51;99992.88;;;28.54;56.96
44457;BME280;30159;49.316;8.558;2023-05-21T07:55:17;100000.06;;;28.03;57.11
44457;BME280;30159;49.316;8.558;2023-05-21T07:57:44;99977.47;;;28.50;56.27
44457;BME280;30159;49.316;8.558;2023-05-21T08:00:13;100000.59;;;28.74;55.70
44457;BME280;30159;49.316;8.558;2023-05-21T08:02:39;99976.19;;;28.92;55.75
44457;BME280;30159;49.316;8.558;2023-05-21T08:05:07;99988.22;;;29.47;54.95
44457;BME280;30159;49.316;8.558;2023-05-21T08:07:34;99994.75;;;27.67;57.19
44457;BME280;30159;49.316;8.558;2023-05-21T08:10:01;99994.00;;;26.28;60.50
44457;BME280;30159;49.316;8.558;2023-05-21T08:12:28;99984.88;;;25.78;61.41
44457;BME280;30159;49.316;8.558;2023-05-21T08:14:56;99985.84;;;25.01;63.31
44457;BME280;30159;49.316;8.558;2023-05-21T08:17:24;99983.78;;;24.80;65.45
44457;BME280;30159;49.316;8.558;2023-05-21T08:19:52;99987.19;;;24.59;64.91
44457;BME280;30159;49.316;8.558;2023-05-21T08:22:19;99943.00;;;23.97;67.16
44457;BME280;30159;49.316;8.558;2023-05-21T08:24:45;99983.31;;;24.71;65.70
44457;BME280;30159;49.316;8.558;2023-05-21T08:27:12;99981.38;;;24.20;65.82
44457;BME280;30159;49.316;8.558;2023-05-21T08:29:40;99988.94;;;23.48;67.11
44457;BME280;30159;49.316;8.558;2023-05-21T08:32:07;99986.50;;;23.40;69.66
44457;BME280;30159;49.316;8.558;2023-05-21T08:34:35;99985.22;;;23.67;68.86
44457;BME280;30159;49.316;8.558;2023-05-21T08:37:01;99983.88;;;23.54;68.83
44457;BME280;30159;49.316;8.558;2023-05-21T08:39:28;99993.00;;;22.64;71.42
44457;BME280;30159;49.316;8.558;2023-05-21T08:42:03;99988.44;;;22.48;73.43
44457;BME280;30159;49.316;8.558;2023-05-21T08:44:36;99981.31;;;22.70;72.28
44457;BME280;30159;49.316;8.558;2023-05-21T08:47:09;99980.97;;;22.76;72.22
44457;BME280;30159;49.316;8.558;2023-05-21T08:49:40;99987.34;;;22.83;72.33
44457;BME280;30159;49.316;8.558;2023-05-21T08:52:09;99973.34;;;22.96;72.74
44457;BME280;30159;49.316;8.558;2023-05-21T08:54:36;99985.16;;;23.26;71.26
44457;BME280;30159;49.316;8.558;2023-05-21T08:57:04;99978.72;;;23.49;70.92
44457;BME280;30159;49.316;8.558;2023-05-21T08:59:30;99849.94;;;22.57;70.56
44457;BME280;30159;49.316;8.558;2023-05-21T09:01:57;99979.84;;;23.41;70.25
44457;BME280;30159;49.316;8.558;2023-05-21T09:04:24;99981.56;;;23.56;70.08
44457;BME280;30159;49.316;8.558;2023-05-21T09:06:53;99962.63;;;23.51;69.90
44457;BME280;30159;49.316;8.558;2023-05-21T09:09:26;99969.88;;;23.66;70.11
44457;BME280;30159;49.316;8.558;2023-05-21T09:11:53;99985.97;;;23.64;71.19
44457;BME280;30159;49.316;8.558;2023-05-21T09:14:20;99977.97;;;23.89;70.69
44457;BME280;30159;49.316;8.558;2023-05-21T09:16:48;99981.88;;;23.85;70.08
44457;BME280;30159;49.316;8.558;2023-05-21T09:19:14;99977.00;;;24.15;69.61
44457;BME280;30159;49.316;8.558;2023-05-21T09:21:41;99947.63;;;23.86;70.09
44457;BME280;30159;49.316;8.558;2023-05-21T09:24:09;99980.97;;;24.22;69.31
44457;BME280;30159;49.316;8.558;2023-05-21T09:26:36;99980.56;;;24.19;68.62
44457;BME280;30159;49.316;8.558;2023-05-21T09:29:02;99976.19;;;24.11;68.15
44457;BME280;30159;49.316;8.558;2023-05-21T09:31:29;99977.28;;;24.03;69.89
44457;BME280;30159;49.316;8.558;2023-05-21T09:33:56;99964.28;;;23.96;68.78
44457;BME280;30159;49.316;8.558;2023-05-21T09:36:23;99975.41;;;24.11;68.44
44457;BME280;30159;49.316;8.558;2023-05-21T09:38:50;99972.97;;;24.02;68.99
44457;BME280;30159;49.316;8.558;2023-05-21T09:41:18;99974.25;;;24.15;68.70
44457;BME280;30159;49.316;8.558;2023-05-21T09:43:45;99928.06;;;23.98;68.00
44457;BME280;30159;49.316;8.558;2023-05-21T09:46:12;99975.59;;;24.39;68.29
44457;BME280;30159;49.316;8.558;2023-05-21T09:48:40;99978.72;;;24.38;66.80
44457;BME280;30159;49.316;8.558;2023-05-21T09:51:08;99971.09;;;24.13;67.92
44457;BME280;30159;49.316;8.558;2023-05-21T09:53:35;99950.16;;;24.05;67.85
44457;BME280;30159;49.316;8.558;2023-05-21T09:56:02;99969.91;;;24.14;69.18
44457;BME280;30159;49.316;8.558;2023-05-21T09:58:31;99969.53;;;24.19;67.63
44457;BME280;30159;49.316;8.558;2023-05-21T10:00:59;99972.72;;;24.22;68.11
44457;BME280;30159;49.316;8.558;2023-05-21T10:03:27;99965.34;;;24.36;66.87
44457;BME280;30159;49.316;8.558;2023-05-21T10:05:56;99965.53;;;24.62;66.85
44457;BME280;30159;49.316;8.558;2023-05-21T10:08:26;99936.69;;;24.48;67.69
44457;BME280;30159;49.316;8.558;2023-05-21T10:10:56;99965.63;;;24.76;66.49
44457;BME280;30159;49.316;8.558;2023-05-21T10:13:23;99966.94;;;25.14;66.27
44457;BME280;30159;49.316;8.558;2023-05-21T10:15:56;99963.41;;;25.14;64.38
44457;BME280;30159;49.316;8.558;2023-05-21T10:18:25;99967.63;;;24.86;66.04
44457;BME280;30159;49.316;8.558;2023-05-21T10:20:52;99962.50;;;24.88;65.09
44457;BME280;30159;49.316;8.558;2023-05-21T10:23:22;99966.94;;;25.11;65.46
44457;BME280;30159;49.316;8.558;2023-05-21T10:25:49;99957.41;;;24.90;65.84
44457;BME280;30159;49.316;8.558;2023-05-21T10:28:16;99956.94;;;24.74;66.55
44457;BME280;30159;49.316;8.558;2023-05-21T10:30:43;99957.75;;;24.78;66.48
44457;BME280;30159;49.316;8.558;2023-05-21T10:33:12;99960.44;;;24.71;65.67
44457;BME280;30159;49.316;8.558;2023-05-21T10:35:41;99958.13;;;24.76;66.05
44457;BME280;30159;49.316;8.558;2023-05-21T10:38:08;99892.84;;;24.32;66.26
44457;BME280;30159;49.316;8.558;2023-05-21T10:40:35;99950.56;;;24.66;66.70
44457;BME280;30159;49.316;8.558;2023-05-21T10:43:22;99939.16;;;24.64;66.40
44457;BME280;30159;49.316;8.558;2023-05-21T10:46:03;99944.34;;;24.84;65.94
44457;BME280;30159;49.316;8.558;2023-05-21T10:48:47;99905.22;;;24.56;66.00
44457;BME280;30159;49.316;8.558;2023-05-21T10:51:21;99953.28;;;24.55;66.27
44457;BME280;30159;49.316;8.558;2023-05-21T10:54:02;99942.78;;;24.83;66.55
44457;BME280;30159;49.316;8.558;2023-05-21T10:56:38;99939.69;;;25.06;66.82
44457;BME280;30159;49.316;8.558;2023-05-21T10:59:11;99960.34;;;25.48;65.59
44457;BME280;30159;49.316;8.558;2023-05-21T11:01:47;99940.97;;;25.26;65.73
44457;BME280;30159;49.316;8.558;2023-05-21T11:04:16;99934.69;;;25.26;64.82
44457;BME280;30159;49.316;8.558;2023-05-21T11:06:46;99939.41;;;25.18;65.19
44457;BME280;30159;49.316;8.558;2023-05-21T11:09:14;99941.75;;;25.19;65.89
44457;BME280;30159;49.316;8.558;2023-05-21T11:11:42;99930.66;;;25.09;65.82
44457;BME280;30159;49.316;8.558;2023-05-21T11:14:31;99934.22;;;25.16;65.09
44457;BME280;30159;49.316;8.558;2023-05-21T11:17:00;99931.13;;;25.21;65.32
44457;BME280;30159;49.316;8.558;2023-05-21T11:19:36;99904.22;;;25.00;65.01
44457;BME280;30159;49.316;8.558;2023-05-21T11:22:05;99831.59;;;24.75;64.97
44457;BME280;30159;49.316;8.558;2023-05-21T11:24:36;99888.56;;;25.37;64.18
44457;BME280;30159;49.316;8.558;2023-05-21T11:27:05;99924.09;;;25.60;62.62
44457;BME280;30159;49.316;8.558;2023-05-21T11:29:38;99890.16;;;25.41;62.66
44457;BME280;30159;49.316;8.558;2023-05-21T11:32:06;99923.31;;;25.84;63.17
44457;BME280;30159;49.316;8.558;2023-05-21T11:34:45;99920.56;;;26.13;63.31
44457;BME280;30159;49.316;8.558;2023-05-21T11:37:23;99913.06;;;25.99;62.16
44457;BME280;30159;49.316;8.558;2023-05-21T11:39:52;99918.59;;;26.03;62.64
44457;BME280;30159;49.316;8.558;2023-05-21T11:42:29;99924.50;;;25.62;62.46
44457;BME280;30159;49.316;8.558;2023-05-21T11:44:56;99922.47;;;25.44;63.98
44457;BME280;30159;49.316;8.558;2023-05-21T11:47:24;99919.75;;;25.77;62.45
44457;BME280;30159;49.316;8.558;2023-05-21T11:49:53;99924.91;;;25.89;62.38
44457;BME280;30159;49.316;8.558;2023-05-21T11:52:20;99923.69;;;26.33;61.77
44457;BME280;30159;49.316;8.558;2023-05-21T11:54:47;99916.22;;;25.98;61.91
44457;BME280;30159;49.316;8.558;2023-05-21T11:57:15;99875.16;;;25.71;62.15
44457;BME280;30159;49.316;8.558;2023-05-21T11:59:43;99923.69;;;26.33;62.90
44457;BME280;30159;49.316;8.558;2023-05-21T12:02:13;99924.38;;;26.73;61.64
44457;BME280;30159;49.316;8.558;2023-05-21T12:04:40;99915.88;;;27.20;60.78
44457;BME280;30159;49.316;8.558;2023-05-21T12:07:09;99911.78;;;27.39;60.22
44457;BME280;30159;49.316;8.558;2023-05-21T12:09:38;99885.56;;;26.91;60.89
44457;BME280;30159;49.316;8.558;2023-05-21T12:12:07;99907.19;;;27.14;60.60
44457;BME280;30159;49.316;8.558;2023-05-21T12:14:34;99920.97;;;27.32;59.99
44457;BME280;30159;49.316;8.558;2023-05-21T12:17:01;99911.69;;;27.57;60.10
44457;BME280;30159;49.316;8.558;2023-05-21T12:19:31;99909.22;;;27.69;59.34
44457;BME280;30159;49.316;8.558;2023-05-21T12:22:00;99919.44;;;27.76;58.89
44457;BME280;30159;49.316;8.558;2023-05-21T12:24:28;99894.34;;;27.45;58.03
44457;BME280;30159;49.316;8.558;2023-05-21T12:26:56;99896.69;;;27.50;58.61
44457;BME280;30159;49.316;8.558;2023-05-21T12:29:24;99904.00;;;27.23;59.35
44457;BME280;30159;49.316;8.558;2023-05-21T12:31:51;99915.00;;;27.37;59.69
44457;BME280;30159;49.316;8.558;2023-05-21T12:34:39;99915.22;;;27.61;57.29
44457;BME280;30159;49.316;8.558;2023-05-21T12:37:07;99892.06;;;27.33;57.91
44457;BME280;30159;49.316;8.558;2023-05-21T12:39:39;99911.94;;;27.73;56.93
44457;BME280;30159;49.316;8.558;2023-05-21T12:42:05;99896.72;;;27.47;55.83
44457;BME280;30159;49.316;8.558;2023-05-21T12:44:32;99887.25;;;27.44;54.86
44457;BME280;30159;49.316;8.558;2023-05-21T12:46:59;99920.59;;;27.26;53.44
44457;BME280;30159;49.316;8.558;2023-05-21T12:49:30;99907.13;;;27.28;53.44
44457;BME280;30159;49.316;8.558;2023-05-21T12:51:56;99919.09;;;27.07;53.00
44457;BME280;30159;49.316;8.558;2023-05-21T12:54:27;99918.28;;;27.10;52.58
44457;BME280;30159;49.316;8.558;2023-05-21T12:56:55;99915.84;;;27.27;51.54
44457;BME280;30159;49.316;8.558;2023-05-21T12:59:22;99909.22;;;27.69;52.01